Terminal Aerodrome Forecast
Issued by NWS Blacksburg, VA

Home | Current Version | Previous Version | Text Only | Print | Product List | Glossary On
Versions: 1 2 3 4 5 6 7 8 9 10 11 12 13 14 15
000
FTUS41 KRNK 290624 AAA
TAFLYH
TAF AMD
KLYH 290624Z 2906/3006 00000KT P6SM BKN040
      TEMPO 2909/2912 2SM BR BKN015
     FM291300 22007KT P6SM SCT020
     FM291800 22009KT P6SM SCT060
     FM300000 20004KT P6SM SCT250=

USA.gov is the U.S. government's official web portal to all federal, state and local government web resources and services.